Time;durP1;ratioP1;P1;durP2;ratioP2;P2;SDS_P1;SDS_P2;PMS_P1;PMS_P2;Temp;Humidity;BMP_temperature;BMP_pressure;BME280_temperature;BME280_humidity;BME280_pressure;Samples;Min_cycle;Max_cycle;Signal;HPM_P1;HPM_P2
2023/09/11 00:01:32;;;;;;;22.55;14.82;;;;;;;24.82;100.00;-18692.75;5021413;28;20037;-76
2023/09/11 00:03:58;;;;;;;24.10;13.88;;;;;;;24.93;100.00;-18695.88;5018951;28;20512;-76
2023/09/11 00:06:25;;;;;;;22.45;14.27;;;;;;;24.79;100.00;-18691.94;5023883;28;20042;-76
2023/09/11 00:08:50;;;;;;;24.95;14.65;;;;;;;24.53;100.00;-18685.31;5025476;28;20515;-75
2023/09/11 00:11:16;;;;;;;19.67;14.57;;;;;;;24.71;100.00;-18689.91;5020826;28;20045;-77
2023/09/11 00:13:41;;;;;;;19.00;13.38;;;;;;;24.90;100.00;-18695.06;5024837;28;20469;-77
2023/09/11 00:16:07;;;;;;;25.73;14.75;;;;;;;24.76;100.00;-18691.25;5019000;28;20041;-77
2023/09/11 00:18:32;;;;;;;23.85;13.55;;;;;;;24.90;100.00;-18694.91;5023646;28;20044;-76
2023/09/11 00:20:57;;;;;;;22.88;13.50;;;;;;;24.80;100.00;-18692.34;5022738;28;20044;-76
2023/09/11 00:23:23;;;;;;;20.33;14.15;;;;;;;24.47;100.00;-18683.69;5024708;28;20033;-77
2023/09/11 00:25:48;;;;;;;21.48;12.32;;;;;;;24.50;100.00;-18684.34;5024698;28;20088;-77
2023/09/11 00:28:14;;;;;;;24.88;13.80;;;;;;;24.49;100.00;-18684.09;5005041;28;20144;-76
2023/09/11 00:30:39;;;;;;;23.98;13.60;;;;;;;24.41;100.00;-18681.91;5020699;28;20053;-77
2023/09/11 00:33:05;;;;;;;22.10;13.23;;;;;;;24.49;100.00;-18684.22;5020962;28;20598;-75
2023/09/11 00:35:30;;;;;;;24.58;13.45;;;;;;;24.30;100.00;-18679.19;5021470;28;20049;-77
2023/09/11 00:37:56;;;;;;;26.15;13.75;;;;;;;24.19;100.00;-18676.22;5005525;28;20095;-77
2023/09/11 00:40:21;;;;;;;23.65;12.55;;;;;;;24.30;100.00;-18679.19;5020535;28;20120;-77
2023/09/11 00:42:47;;;;;;;22.23;12.60;;;;;;;24.32;100.00;-18679.75;5006275;28;20049;-77
2023/09/11 00:45:12;;;;;;;27.50;13.30;;;;;;;24.40;100.00;-18681.78;5022839;28;20131;-76
2023/09/11 00:47:39;;;;;;;22.15;12.65;;;;;;;24.24;100.00;-18677.44;5024508;28;20051;-78
2023/09/11 00:50:07;;;;;;;20.73;13.68;;;;;;;24.03;100.00;-18672.03;5023643;28;20958;-75
2023/09/11 00:52:32;;;;;;;21.45;13.13;;;;;;;24.16;100.00;-18675.28;5005107;28;20084;-76
2023/09/11 00:54:59;;;;;;;21.25;13.77;;;;;;;23.74;100.00;-18664.16;5024016;28;20061;-77
2023/09/11 00:57:26;;;;;;;21.38;12.30;;;;;;;23.57;100.00;-18659.69;5024078;28;20100;-75
2023/09/11 00:59:51;;;;;;;23.95;13.75;;;;;;;23.62;100.00;-18661.03;5023628;28;20041;-77
2023/09/11 01:02:18;;;;;;;24.65;14.38;;;;;;;23.58;100.00;-18659.94;5024561;28;20382;-77
2023/09/11 01:04:45;;;;;;;21.90;13.57;;;;;;;23.55;100.00;-18659.28;5019569;28;20513;-76
2023/09/11 01:07:13;;;;;;;24.65;13.80;;;;;;;23.40;100.00;-18655.22;5023889;28;20053;-76
2023/09/11 01:09:39;;;;;;;23.73;13.40;;;;;;;23.48;100.00;-18657.25;5023582;28;20111;-76
2023/09/11 01:12:05;;;;;;;21.83;13.40;;;;;;;23.52;100.00;-18658.31;5023783;28;20042;-78
2023/09/11 01:14:32;;;;;;;25.95;12.65;;;;;;;23.43;100.00;-18656.16;5022300;28;20053;-77
2023/09/11 01:17:27;;;;;;;22.92;14.65;;;;;;;23.31;100.00;-18652.75;5023655;28;20037;-77
2023/09/11 01:20:21;;;;;;;21.60;13.93;;;;;;;23.22;100.00;-18650.31;5007641;28;20046;-77
2023/09/11 01:23:18;;;;;;;28.25;13.77;;;;;;;23.17;100.00;-18649.09;4975865;28;20066;-77
2023/09/11 01:26:03;;;;;;;22.05;13.77;;;;;;;23.16;100.00;-18648.81;5022558;28;20092;-77
2023/09/11 01:28:56;;;;;;;25.20;14.98;;;;;;;23.10;100.00;-18647.34;5023329;28;20053;-77
2023/09/11 01:31:23;;;;;;;20.27;14.50;;;;;;;23.10;100.00;-18647.34;5027293;28;20042;-76
2023/09/11 01:34:00;;;;;;;22.95;13.25;;;;;;;23.19;100.00;-18649.78;5024990;28;20125;-77
2023/09/11 01:36:25;;;;;;;22.85;13.90;;;;;;;23.19;100.00;-18649.78;5027380;28;20083;-76
2023/09/11 01:38:50;;;;;;;24.30;14.18;;;;;;;23.29;100.00;-18652.22;5009674;28;20095;-77
2023/09/11 01:41:16;;;;;;;25.77;15.10;;;;;;;23.30;100.00;-18652.50;5010097;28;20056;-77
2023/09/11 01:43:48;;;;;;;27.00;13.93;;;;;;;23.16;100.00;-18648.81;5027330;28;20114;-77
2023/09/11 01:46:16;;;;;;;26.73;14.52;;;;;;;23.15;100.00;-18648.69;5023879;28;20144;-76
2023/09/11 01:48:44;;;;;;;26.60;14.63;;;;;;;23.06;100.00;-18646.25;5027714;28;20060;-77
2023/09/11 01:51:11;;;;;;;24.77;14.50;;;;;;;23.09;100.00;-18646.94;5004649;28;20084;-77
2023/09/11 01:53:40;;;;;;;28.83;15.15;;;;;;;23.10;100.00;-18647.19;5025817;28;20064;-77
2023/09/11 01:56:06;;;;;;;;;;;;;;;23.03;100.00;-18645.44;5025853;28;20107;-77
2023/09/11 01:58:34;;;;;;;26.73;15.20;;;;;;;22.92;100.00;-18642.44;5026610;28;19925;-77
2023/09/11 02:01:00;;;;;;;27.30;14.90;;;;;;;22.85;100.00;-18640.56;5027495;28;20632;-77
2023/09/11 02:03:26;;;;;;;24.17;15.40;;;;;;;22.95;100.00;-18643.25;5027677;28;20414;-76
2023/09/11 02:05:52;;;;;;;27.38;14.23;;;;;;;22.87;100.00;-18641.09;5027350;28;20640;-76
2023/09/11 02:08:17;;;;;;;28.08;14.77;;;;;;;23.04;100.00;-18645.56;5023607;28;20057;-77
2023/09/11 02:10:42;;;;;;;27.35;14.60;;;;;;;23.09;100.00;-18646.94;5023906;28;20561;-77
2023/09/11 02:13:08;;;;;;;24.85;14.75;;;;;;;23.33;100.00;-18653.31;5020079;28;20553;-76
2023/09/11 02:15:33;;;;;;;22.83;14.23;;;;;;;23.56;100.00;-18659.41;5021446;28;20052;-77
2023/09/11 02:17:59;;;;;;;25.33;14.80;;;;;;;23.28;100.00;-18651.94;5023602;28;20056;-77
2023/09/11 02:20:24;;;;;;;25.27;14.27;;;;;;;23.15;100.00;-18648.56;5026792;28;20039;-77
2023/09/11 02:22:50;;;;;;;23.38;14.60;;;;;;;22.96;100.00;-18643.69;5026514;28;20041;-77
2023/09/11 02:25:15;;;;;;;25.70;15.90;;;;;;;22.96;100.00;-18643.69;5026557;28;20085;-76
2023/09/11 02:27:40;;;;;;;25.75;16.08;;;;;;;23.00;100.00;-18644.50;5020265;28;20054;-77
2023/09/11 02:30:06;;;;;;;24.25;15.98;;;;;;;22.98;100.00;-18644.06;5009234;28;20512;-75
2023/09/11 02:32:32;;;;;;;26.63;16.23;;;;;;;23.10;100.00;-18647.34;5025607;28;20484;-77
2023/09/11 02:34:57;;;;;;;24.48;14.88;;;;;;;23.16;100.00;-18648.97;5013202;28;20155;-76
2023/09/11 02:37:22;;;;;;;23.17;15.20;;;;;;;23.08;100.00;-18646.66;5008319;28;20045;-77
2023/09/11 02:39:48;;;;;;;25.30;14.95;;;;;;;22.90;100.00;-18642.03;5023122;28;20042;-75
2023/09/11 02:42:13;;;;;;;21.90;13.85;;;;;;;23.03;100.00;-18645.31;5027556;28;20041;-76
2023/09/11 02:44:38;;;;;;;25.40;15.38;;;;;;;22.95;100.00;-18643.41;5019102;28;20049;-76
2023/09/11 02:47:05;;;;;;;26.67;15.65;;;;;;;22.86;100.00;-18640.94;5023332;28;20037;-76
2023/09/11 02:49:30;;;;;;;24.55;15.63;;;;;;;22.86;100.00;-18640.81;5025349;28;20040;-76
2023/09/11 02:51:55;;;;;;;27.65;16.20;;;;;;;22.79;100.00;-18639.06;5009565;28;20105;-77
2023/09/11 02:54:21;;;;;;;23.50;15.90;;;;;;;22.95;100.00;-18643.25;5025398;28;20116;-77
2023/09/11 02:56:46;;;;;;;30.17;16.88;;;;;;;22.95;100.00;-18643.25;5027522;28;20112;-77
2023/09/11 02:59:12;;;;;;;27.90;15.50;;;;;;;22.96;100.00;-18643.53;5027582;28;20543;-78
2023/09/11 03:01:37;;;;;;;25.77;15.07;;;;;;;22.85;100.00;-18640.56;5006606;28;20061;-76
2023/09/11 03:04:03;;;;;;;28.60;15.68;;;;;;;22.74;100.00;-18637.69;5008121;28;20760;-77
2023/09/11 03:06:28;;;;;;;23.95;16.67;;;;;;;22.70;100.00;-18636.75;5007564;28;20061;-76
2023/09/11 03:08:53;;;;;;;24.20;15.90;;;;;;;22.46;100.00;-18630.22;5024634;28;20040;-77
2023/09/11 03:11:19;;;;;;;24.52;16.15;;;;;;;22.44;100.00;-18629.81;5022193;28;20401;-78
2023/09/11 03:13:44;;;;;;;32.50;17.20;;;;;;;22.32;100.00;-18626.56;5008564;28;20037;-77
2023/09/11 03:16:14;;;;;;;22.58;16.02;;;;;;;22.46;100.00;-18630.22;5023187;28;20516;-77
2023/09/11 03:18:40;;;;;;;28.23;16.77;;;;;;;22.30;100.00;-18626.03;5026062;28;20404;-77
2023/09/11 03:21:07;;;;;;;28.58;16.35;;;;;;;22.27;100.00;-18625.34;5026589;28;21225;-77
2023/09/11 03:23:33;;;;;;;31.60;17.25;;;;;;;22.34;100.00;-18627.09;5025216;28;20055;-77
2023/09/11 03:25:59;;;;;;;31.98;16.95;;;;;;;22.43;100.00;-18629.41;5018949;28;20042;-78
2023/09/11 03:28:27;;;;;;;26.05;16.63;;;;;;;22.43;100.00;-18629.56;5026492;28;20727;-78
2023/09/11 03:30:52;;;;;;;28.83;15.77;;;;;;;22.38;100.00;-18628.06;5022178;28;20036;-77
2023/09/11 03:33:17;;;;;;;27.88;16.63;;;;;;;22.53;100.00;-18632.28;5023935;28;20122;-77
2023/09/11 03:35:46;;;;;;;29.52;18.05;;;;;;;22.33;100.00;-18626.84;5026609;28;20037;-78
2023/09/11 03:38:11;;;;;;;27.65;16.63;;;;;;;22.31;100.00;-18626.28;5026866;28;20038;-78
2023/09/11 03:40:37;;;;;;;26.02;16.33;;;;;;;22.25;100.00;-18624.81;5025751;28;20052;-77
2023/09/11 03:43:02;;;;;;;31.52;17.55;;;;;;;22.20;100.00;-18623.44;5004260;28;20046;-78
2023/09/11 03:45:28;;;;;;;32.78;18.40;;;;;;;22.17;100.00;-18622.63;4999834;28;20049;-77
2023/09/11 03:47:53;;;;;;;24.88;16.48;;;;;;;22.30;100.00;-18626.16;5021792;28;20701;-78
2023/09/11 03:50:18;;;;;;;29.38;17.52;;;;;;;22.22;100.00;-18623.84;5026710;28;20041;-77
2023/09/11 03:52:44;;;;;;;28.90;17.80;;;;;;;22.05;100.00;-18619.38;5028698;28;20045;-77
2023/09/11 03:55:09;;;;;;;29.38;18.15;;;;;;;22.23;100.00;-18624.13;5005921;28;20123;-76
2023/09/11 03:57:34;;;;;;;26.92;18.73;;;;;;;22.13;100.00;-18621.53;5004330;28;20048;-75
2023/09/11 04:00:00;;;;;;;27.13;17.85;;;;;;;22.01;100.00;-18618.41;5023754;28;20132;-77
2023/09/11 04:02:25;;;;;;;29.52;17.95;;;;;;;22.01;100.00;-18618.41;4999211;28;20049;-76
2023/09/11 04:04:50;;;;;;;31.02;18.55;;;;;;;22.07;100.00;-18620.03;5020802;28;20045;-76
2023/09/11 04:07:16;;;;;;;30.10;18.65;;;;;;;22.11;100.00;-18620.84;5021085;28;20046;-77
2023/09/11 04:09:41;;;;;;;28.10;19.08;;;;;;;22.05;100.00;-18619.50;5010706;28;20552;-77
2023/09/11 04:12:06;;;;;;;37.05;19.10;;;;;;;22.00;100.00;-18618.00;5006510;28;20602;-76
2023/09/11 04:14:37;;;;;;;25.73;19.35;;;;;;;21.98;100.00;-18617.47;5021579;28;20037;-75
2023/09/11 04:17:02;;;;;;;30.85;20.08;;;;;;;22.17;100.00;-18622.50;5021248;28;20385;-76
2023/09/11 04:19:28;;;;;;;34.85;19.67;;;;;;;22.11;100.00;-18621.00;5020504;28;20037;-78
2023/09/11 04:21:53;;;;;;;32.05;18.83;;;;;;;22.34;100.00;-18626.97;5020847;28;20400;-77
2023/09/11 04:24:18;;;;;;;26.75;19.13;;;;;;;22.33;100.00;-18626.84;5018123;28;20128;-77
2023/09/11 04:26:44;;;;;;;34.67;19.90;;;;;;;22.31;100.00;-18626.28;5000056;28;20045;-77
2023/09/11 04:29:13;;;;;;;37.35;20.67;;;;;;;22.12;100.00;-18621.25;5019544;28;20056;-76
2023/09/11 04:31:38;;;;;;;34.47;19.08;;;;;;;22.20;100.00;-18623.44;5016525;28;20053;-76
2023/09/11 04:34:04;;;;;;;26.30;18.75;;;;;;;22.20;100.00;-18623.31;5025045;28;20485;-77
2023/09/11 04:36:29;;;;;;;32.28;19.60;;;;;;;22.11;100.00;-18621.00;5024449;28;20046;-78
2023/09/11 04:38:55;;;;;;;32.22;19.05;;;;;;;21.98;100.00;-18617.59;5028970;28;20056;-77
2023/09/11 04:41:21;;;;;;;31.90;19.85;;;;;;;21.97;100.00;-18617.19;5027842;28;20065;-77
2023/09/11 04:43:46;;;;;;;33.20;19.48;;;;;;;21.93;100.00;-18616.09;5027973;28;20038;-77
2023/09/11 04:46:11;;;;;;;32.97;19.48;;;;;;;21.75;100.00;-18611.47;5025575;28;20058;-77
2023/09/11 04:48:37;;;;;;;28.88;19.25;;;;;;;21.66;100.00;-18609.03;5019697;28;20111;-77
2023/09/11 04:51:02;;;;;;;32.80;20.40;;;;;;;21.65;100.00;-18608.75;5017998;28;20042;-77
2023/09/11 04:53:28;;;;;;;32.50;20.85;;;;;;;21.80;100.00;-18612.84;5019578;28;20575;-77
2023/09/11 04:55:53;;;;;;;42.63;21.95;;;;;;;21.72;100.00;-18610.53;5020589;28;20061;-77
2023/09/11 04:58:18;;;;;;;32.20;20.10;;;;;;;21.81;100.00;-18613.13;5021782;28;20128;-77
2023/09/11 05:00:44;;;;;;;30.13;18.35;;;;;;;21.80;100.00;-18612.84;5004861;28;20045;-76
2023/09/11 05:03:09;;;;;;;31.30;21.25;;;;;;;21.62;100.00;-18608.09;5023788;28;20108;-78
2023/09/11 05:05:41;;;;;;;33.13;19.80;;;;;;;21.69;100.00;-18609.72;5022090;28;20059;-77
2023/09/11 05:08:07;;;;;;;32.65;20.35;;;;;;;21.63;100.00;-18608.34;5022711;28;20095;-78
2023/09/11 05:10:33;;;;;;;30.48;20.38;;;;;;;21.74;100.00;-18611.06;5023453;28;20041;-76
2023/09/11 05:12:58;;;;;;;28.73;19.55;;;;;;;21.74;100.00;-18611.22;5010177;28;20190;-75
2023/09/11 05:15:23;;;;;;;30.05;20.80;;;;;;;21.70;100.00;-18610.00;5023407;28;20042;-76
2023/09/11 05:17:52;;;;;;;29.13;19.48;;;;;;;21.70;100.00;-18610.13;5026795;28;20124;-77
2023/09/11 05:20:17;;;;;;;36.05;20.83;;;;;;;21.80;100.00;-18612.69;5026836;28;20041;-77
2023/09/11 05:22:42;;;;;;;30.40;19.90;;;;;;;21.65;100.00;-18608.75;5023711;28;20122;-76
2023/09/11 05:25:08;;;;;;;35.60;20.73;;;;;;;21.59;100.00;-18607.13;5009693;28;20040;-78
2023/09/11 05:27:34;;;;;;;28.30;19.50;;;;;;;21.69;100.00;-18609.84;5025700;28;20037;-77
2023/09/11 05:29:59;;;;;;;32.63;20.52;;;;;;;21.71;100.00;-18610.41;5025947;28;20037;-76
2023/09/11 05:32:25;;;;;;;33.85;20.95;;;;;;;22.00;100.00;-18618.00;5020589;28;20042;-76
2023/09/11 05:34:51;;;;;;;29.35;21.60;;;;;;;21.89;100.00;-18615.16;5023702;28;20037;-76
2023/09/11 05:37:17;;;;;;;34.55;21.52;;;;;;;22.07;100.00;-18619.91;5021744;28;20099;-76
2023/09/11 05:39:43;;;;;;;36.20;21.50;;;;;;;22.11;100.00;-18621.00;5021124;28;20041;-76
2023/09/11 05:42:09;;;;;;;31.90;21.50;;;;;;;22.09;100.00;-18620.44;5007134;28;20432;-76
2023/09/11 05:44:34;;;;;;;34.65;21.20;;;;;;;21.97;100.00;-18617.19;5020063;28;20099;-76
2023/09/11 05:47:00;;;;;;;31.70;20.95;;;;;;;21.89;100.00;-18615.00;5021734;28;20098;-77
2023/09/11 05:49:25;;;;;;;35.65;23.15;;;;;;;22.13;100.00;-18621.53;5020533;28;20053;-75
2023/09/11 05:51:50;;;;;;;36.22;21.58;;;;;;;22.23;100.00;-18624.13;5003965;28;20045;-77
2023/09/11 05:54:16;;;;;;;33.85;22.33;;;;;;;22.24;100.00;-18624.53;5024450;28;20072;-77
2023/09/11 05:56:41;;;;;;;37.20;23.60;;;;;;;22.46;100.00;-18630.38;5021076;28;20037;-76
2023/09/11 05:59:07;;;;;;;30.83;22.05;;;;;;;22.65;100.00;-18635.38;5024942;28;20045;-76
2023/09/11 06:01:32;;;;;;;36.75;23.27;;;;;;;22.68;100.00;-18636.19;4999467;28;20052;-77
2023/09/11 06:03:58;;;;;;;32.78;22.95;;;;;;;22.92;100.00;-18642.44;5002409;28;20041;-76
2023/09/11 06:06:23;;;;;;;39.65;23.70;;;;;;;22.88;100.00;-18641.50;5025207;28;20565;-77
2023/09/11 06:08:49;;;;;;;33.65;21.50;;;;;;;23.00;100.00;-18644.50;5025347;28;20103;-76
2023/09/11 06:11:14;;;;;;;33.45;22.13;;;;;;;23.02;100.00;-18645.16;5004890;28;20057;-76
2023/09/11 06:13:41;;;;;;;37.42;21.88;;;;;;;23.21;100.00;-18650.19;5001272;28;20095;-77
2023/09/11 06:16:06;;;;;;;35.00;21.77;;;;;;;23.34;100.00;-18653.72;5024543;28;20397;-78
2023/09/11 06:18:32;;;;;;;34.33;21.90;;;;;;;23.28;100.00;-18651.94;5022755;28;20040;-77
2023/09/11 06:20:58;;;;;;;30.58;19.30;;;;;;;23.27;100.00;-18651.81;5028784;28;20281;-77
2023/09/11 06:23:23;;;;;;;33.47;21.92;;;;;;;23.57;100.00;-18659.81;5021762;28;20049;-77
2023/09/11 06:25:48;;;;;;;31.80;20.98;;;;;;;23.61;100.00;-18660.75;5023917;28;20049;-78
2023/09/11 06:28:14;;;;;;;31.65;20.27;;;;;;;23.79;100.00;-18665.50;5021776;28;20805;-76
2023/09/11 06:30:39;;;;;;;27.85;19.00;;;;;;;23.82;100.00;-18666.47;5022499;28;20061;-76
2023/09/11 06:33:05;;;;;;;27.55;20.25;;;;;;;24.27;100.00;-18678.25;5024312;28;20037;-77
2023/09/11 06:35:30;;;;;;;28.25;18.30;;;;;;;24.18;100.00;-18675.81;5022409;28;20049;-76
2023/09/11 06:37:55;;;;;;;29.63;18.60;;;;;;;24.31;100.00;-18679.34;5023997;28;20520;-76
2023/09/11 06:40:21;;;;;;;26.83;17.98;;;;;;;24.70;100.00;-18689.78;5023487;28;20749;-77
2023/09/11 06:42:46;;;;;;;27.63;18.35;;;;;;;24.79;100.00;-18691.94;5017337;28;20034;-75
2023/09/11 06:45:11;;;;;;;30.40;19.63;;;;;;;24.61;100.00;-18687.19;5003921;28;20065;-77
2023/09/11 06:47:37;;;;;;;31.25;18.00;;;;;;;24.45;100.00;-18683.00;5005863;28;20685;-76
2023/09/11 06:50:02;;;;;;;25.35;17.63;;;;;;;24.49;100.00;-18684.09;5017814;28;20045;-75
2023/09/11 06:52:28;;;;;;;27.30;18.05;;;;;;;24.54;100.00;-18685.56;5004799;28;20041;-77
2023/09/11 06:54:54;;;;;;;23.63;16.25;;;;;;;24.66;100.00;-18688.69;5020514;28;20851;-77
2023/09/11 06:57:20;;;;;;;30.77;17.73;;;;;;;24.86;100.00;-18693.97;5021605;28;20530;-77
2023/09/11 06:59:45;;;;;;;28.25;18.80;;;;;;;24.87;100.00;-18694.25;5003456;28;20052;-78
2023/09/11 07:02:10;;;;;;;25.20;17.67;;;;;;;24.93;100.00;-18695.88;5024054;28;20072;-77
2023/09/11 07:04:36;;;;;;;25.25;16.85;;;;;;;24.94;100.00;-18696.13;5023179;28;20099;-77
2023/09/11 07:07:01;;;;;;;26.48;17.13;;;;;;;25.09;100.00;-18699.94;5020591;28;20744;-77
2023/09/11 07:09:26;;;;;;;30.15;17.20;;;;;;;25.28;100.00;-18705.06;5021781;28;20450;-77
2023/09/11 07:11:52;;;;;;;27.02;16.52;;;;;;;25.27;100.00;-18704.81;5024160;28;20099;-76
2023/09/11 07:14:22;;;;;;;26.63;16.55;;;;;;;25.44;100.00;-18709.41;5019221;28;20770;-78
2023/09/11 07:16:47;;;;;;;27.13;17.77;;;;;;;25.70;100.00;-18716.16;5020857;28;20545;-76
2023/09/11 07:19:13;;;;;;;24.73;16.55;;;;;;;25.91;100.00;-18721.72;5017621;28;20065;-75
2023/09/11 07:21:38;;;;;;;26.50;16.20;;;;;;;25.93;100.00;-18722.13;5020920;28;20038;-77
2023/09/11 07:24:04;;;;;;;35.47;17.20;;;;;;;26.04;100.00;-18725.09;5021499;28;20124;-78
2023/09/11 07:26:30;;;;;;;31.48;16.40;;;;;;;26.20;100.00;-18729.28;5005798;28;20037;-76
2023/09/11 07:28:57;;;;;;;28.25;16.73;;;;;;;26.20;100.00;-18729.44;5018744;28;20053;-76
2023/09/11 07:31:23;;;;;;;25.08;16.55;;;;;;;26.38;100.00;-18734.03;5020308;28;20600;-78
2023/09/11 07:33:48;;;;;;;26.23;16.60;;;;;;;26.61;100.00;-18740.25;5022164;28;20088;-75
2023/09/11 07:36:14;;;;;;;23.33;16.02;;;;;;;26.60;100.00;-18739.84;5018967;28;20656;-77
2023/09/11 07:38:44;;;;;;;25.27;15.00;;;;;;;26.92;100.00;-18748.34;5022076;28;20029;-77
2023/09/11 07:41:11;;;;;;;30.15;15.23;;;;;;;26.97;100.00;-18749.69;5018815;28;20133;-76
2023/09/11 07:43:36;;;;;;;25.05;14.88;;;;;;;27.22;100.00;-18756.47;5020095;28;20557;-77
2023/09/11 07:46:01;;;;;;;23.80;15.48;;;;;;;27.08;100.00;-18752.53;5021886;28;20056;-76
2023/09/11 07:48:27;;;;;;;24.48;15.07;;;;;;;27.22;100.00;-18756.47;5021973;28;20448;-76
2023/09/11 07:50:56;;;;;;;21.95;14.52;;;;;;;27.50;100.00;-18763.75;5019155;28;20046;-77
2023/09/11 07:53:22;;;;;;;;;;;;;;;27.62;100.00;-18767.00;5018323;28;20500;-76
2023/09/11 07:55:48;;;;;;;21.40;13.88;;;;;;;27.58;100.00;-18765.78;5019906;28;19923;-76
2023/09/11 07:58:14;;;;;;;25.48;14.13;;;;;;;27.41;100.00;-18761.44;5019643;28;20038;-78
2023/09/11 08:00:40;;;;;;;23.05;13.90;;;;;;;27.57;100.00;-18765.50;5000829;28;20417;-77
2023/09/11 08:03:05;;;;;;;30.08;14.98;;;;;;;27.48;100.00;-18763.22;5021473;28;20038;-76
2023/09/11 08:05:30;;;;;;;19.00;12.88;;;;;;;27.43;100.00;-18761.84;5003351;28;20064;-76
2023/09/11 08:07:58;;;;;;;23.58;13.43;;;;;;;27.61;100.00;-18766.72;5018358;28;20041;-76
2023/09/11 08:10:23;;;;;;;19.33;13.00;;;;;;;27.71;100.00;-18769.16;5019181;28;20041;-76
2023/09/11 08:12:49;;;;;;;21.05;13.00;;;;;;;27.86;100.00;-18773.34;5012225;28;20099;-76
2023/09/11 08:15:14;;;;;;;25.13;12.95;;;;;;;27.93;98.34;-18775.09;5000291;28;20038;-76
2023/09/11 08:17:39;;;;;;;25.17;13.48;;;;;;;27.89;97.99;-18774.16;5002844;28;20050;-76
2023/09/11 08:20:06;;;;;;;20.25;12.68;;;;;;;28.04;99.50;-18778.06;5003474;28;20034;-78
2023/09/11 08:22:31;;;;;;;26.45;13.35;;;;;;;28.26;95.93;-18783.72;5019133;28;20133;-76
2023/09/11 08:24:56;;;;;;;24.88;12.95;;;;;;;28.26;93.09;-18783.72;5017657;28;20241;-76
2023/09/11 08:27:22;;;;;;;19.75;12.43;;;;;;;28.34;91.52;-18786.00;5020860;28;20037;-77
2023/09/11 08:29:47;;;;;;;20.48;11.88;;;;;;;28.50;89.89;-18790.19;5021335;28;20038;-75
2023/09/11 08:32:12;;;;;;;19.38;12.75;;;;;;;28.70;90.00;-18795.44;5007595;28;20049;-77
2023/09/11 08:34:38;;;;;;;15.07;11.20;;;;;;;28.73;88.10;-18796.25;5013623;28;20038;-77
2023/09/11 08:37:03;;;;;;;20.45;11.57;;;;;;;28.53;86.64;-18791.00;5020479;28;20041;-77
2023/09/11 08:39:29;;;;;;;16.75;10.63;;;;;;;28.61;87.27;-18793.03;5005796;28;20136;-77
2023/09/11 08:41:58;;;;;;;14.43;10.48;;;;;;;28.74;85.29;-18796.53;5009749;28;20061;-77
2023/09/11 08:44:24;;;;;;;20.75;10.73;;;;;;;29.06;83.44;-18804.75;5021150;28;20042;-76
2023/09/11 08:46:51;;;;;;;17.10;10.98;;;;;;;28.90;84.05;-18800.72;5017514;28;20052;-77
2023/09/11 08:49:22;;;;;;;16.73;9.43;;;;;;;28.96;82.80;-18802.31;5015373;28;20496;-76
2023/09/11 08:51:51;;;;;;;21.83;10.38;;;;;;;28.97;83.21;-18802.47;5030573;28;20099;-76
2023/09/11 08:54:18;;;;;;;20.05;10.25;;;;;;;29.29;79.96;-18810.81;5019251;28;20460;-76
2023/09/11 08:56:44;;;;;;;18.30;9.07;;;;;;;29.20;80.70;-18808.66;5025471;28;20062;-76
2023/09/11 08:59:11;;;;;;;15.30;8.73;;;;;;;29.16;78.42;-18807.59;5023166;28;20455;-76
2023/09/11 09:01:39;;;;;;;15.65;8.65;;;;;;;29.24;79.01;-18809.59;5023475;28;20100;-76
2023/09/11 09:04:06;;;;;;;14.90;9.45;;;;;;;29.46;80.72;-18815.41;5022161;28;20056;-76
2023/09/11 09:06:33;;;;;;;16.88;9.60;;;;;;;29.58;76.06;-18818.63;5015373;28;20254;-76
2023/09/11 09:08:59;;;;;;;19.85;8.18;;;;;;;29.62;76.10;-18819.56;5025189;28;20102;-76
2023/09/11 09:11:26;;;;;;;16.73;8.43;;;;;;;29.70;75.98;-18821.59;5025071;28;20041;-77
2023/09/11 09:13:51;;;;;;;13.13;7.55;;;;;;;29.51;75.76;-18816.75;5025031;28;20057;-76
2023/09/11 09:16:16;;;;;;;16.80;9.13;;;;;;;29.59;75.87;-18818.91;5025478;28;20060;-77
2023/09/11 09:18:49;;;;;;;15.45;9.52;;;;;;;29.81;71.15;-18824.69;5005698;28;20137;-76
2023/09/11 09:21:16;;;;;;;12.27;7.10;;;;;;;30.01;71.09;-18829.81;5025163;28;20048;-76
2023/09/11 09:23:41;;;;;;;13.27;7.53;;;;;;;29.98;71.66;-18829.00;5024242;28;20053;-76
2023/09/11 09:26:09;;;;;;;15.13;7.70;;;;;;;30.00;71.58;-18829.53;5008105;28;20115;-78
2023/09/11 09:28:42;;;;;;;15.55;6.82;;;;;;;29.96;70.89;-18828.47;5021948;28;20045;-76
2023/09/11 09:31:08;;;;;;;15.10;7.00;;;;;;;30.04;70.32;-18830.75;5007267;28;20048;-77
2023/09/11 09:33:34;;;;;;;13.75;7.03;;;;;;;30.14;70.23;-18833.31;5009677;28;20620;-76
2023/09/11 09:35:59;;;;;;;12.85;7.13;;;;;;;30.10;70.73;-18832.38;5024708;28;20120;-76
2023/09/11 09:38:25;;;;;;;13.63;7.10;;;;;;;30.29;71.40;-18837.22;5022943;28;20135;-77
2023/09/11 09:40:51;;;;;;;15.25;7.40;;;;;;;30.52;67.89;-18843.25;5024981;28;20528;-77
2023/09/11 09:43:18;;;;;;;12.90;6.70;;;;;;;30.60;69.04;-18845.28;5022620;28;20052;-76
2023/09/11 09:45:44;;;;;;;14.25;7.32;;;;;;;30.58;68.45;-18844.88;5018016;28;20051;-77
2023/09/11 09:48:12;;;;;;;11.95;7.00;;;;;;;30.80;69.16;-18850.78;5026271;28;20049;-77
2023/09/11 09:51:01;;;;;;;15.90;7.32;;;;;;;30.96;66.31;-18854.84;5023048;28;20132;-76
2023/09/11 09:53:27;;;;;;;12.25;7.78;;;;;;;30.87;66.51;-18852.41;5023888;28;20045;-77
2023/09/11 09:55:55;;;;;;;12.65;7.47;;;;;;;30.79;64.95;-18850.53;5024414;28;20045;-76
2023/09/11 09:58:24;;;;;;;;;;;;;;;30.94;62.51;-18854.28;5022569;28;20128;-78
2023/09/11 10:00:56;;;;;;;14.32;7.28;;;;;;;30.85;64.01;-18852.00;5018810;28;20075;-78
2023/09/11 10:03:22;;;;;;;15.23;6.57;;;;;;;30.90;64.71;-18853.34;4996084;28;20688;-76
2023/09/11 10:05:49;;;;;;;15.60;7.18;;;;;;;30.80;64.62;-18850.78;5023436;28;20046;-76
2023/09/11 10:08:15;;;;;;;13.23;6.78;;;;;;;30.97;65.17;-18855.22;5019047;28;20102;-77
2023/09/11 10:10:40;;;;;;;11.57;7.13;;;;;;;31.08;62.76;-18857.91;5023652;28;20543;-77
2023/09/11 10:13:08;;;;;;;14.38;6.82;;;;;;;31.19;60.77;-18861.00;5018956;28;20214;-77
2023/09/11 10:15:38;;;;;;;13.35;6.57;;;;;;;31.33;63.68;-18864.50;5016675;28;20045;-75
2023/09/11 10:18:05;;;;;;;12.00;7.05;;;;;;;31.37;62.32;-18865.59;5020221;28;20072;-77
2023/09/11 10:20:31;;;;;;;18.38;7.43;;;;;;;31.53;60.86;-18869.88;4999324;28;20048;-76
2023/09/11 10:23:02;;;;;;;16.98;7.50;;;;;;;31.34;62.38;-18864.78;5023044;28;20072;-77
2023/09/11 10:25:29;;;;;;;11.50;7.32;;;;;;;31.48;62.53;-18868.53;5021845;28;20041;-77
2023/09/11 10:28:03;;;;;;;15.27;7.15;;;;;;;31.46;63.55;-18868.13;5017270;28;20053;-76
2023/09/11 10:30:42;;;;;;;13.98;7.60;;;;;;;31.64;62.19;-18872.84;5022082;28;20091;-77
2023/09/11 10:33:16;;;;;;;13.75;7.38;;;;;;;31.68;62.61;-18873.78;5023154;28;20037;-76
2023/09/11 10:35:44;;;;;;;12.27;7.53;;;;;;;31.75;60.56;-18875.53;5019202;28;20045;-77
2023/09/11 10:38:10;;;;;;;13.32;6.60;;;;;;;31.94;61.55;-18880.63;5022876;28;20092;-76
2023/09/11 10:40:37;;;;;;;13.00;7.47;;;;;;;31.87;60.74;-18878.88;5023024;28;20489;-76
2023/09/11 10:43:02;;;;;;;11.10;6.97;;;;;;;31.92;62.19;-18880.09;5018970;28;20090;-78
2023/09/11 10:45:30;;;;;;;10.95;7.45;;;;;;;31.91;59.63;-18879.97;5020385;28;20060;-77
2023/09/11 10:47:55;;;;;;;15.85;7.43;;;;;;;31.93;60.64;-18880.34;5021605;28;20509;-76
2023/09/11 10:50:29;;;;;;;12.68;6.75;;;;;;;32.30;59.53;-18890.03;5023530;28;20499;-76
2023/09/11 10:52:56;;;;;;;13.55;7.60;;;;;;;32.30;58.08;-18890.03;5023327;28;20048;-76
2023/09/11 10:55:25;;;;;;;12.15;7.10;;;;;;;32.17;58.29;-18886.53;5018550;28;20042;-77
2023/09/11 10:57:57;;;;;;;8.75;6.18;;;;;;;32.56;57.76;-18897.00;5022913;28;20045;-76
2023/09/11 11:00:22;;;;;;;11.48;6.85;;;;;;;32.74;55.94;-18901.56;5007576;28;20517;-76
2023/09/11 11:02:49;;;;;;;15.93;8.25;;;;;;;32.63;56.61;-18898.75;5021089;28;20160;-78
2023/09/11 11:05:15;;;;;;;8.88;7.20;;;;;;;32.67;58.08;-18899.69;5021923;28;20145;-77